CES5647 ZSSS-ZSAM
Flight info
| Callsign | CES5647 |
|---|---|
| Flight time | 1h 17m |
| Altitude | 30100 |
| Route | NXD71D NXD W131 AKDIM A470 ENVEN ENVEN8X |
| Aircraft | A359/H-SDE2E3GHIJ3J4J5LM1ORWXY/LB1D1 |
Departure
| Time | 2026-04-29 11:07 |
|---|---|
| Airport | Shanghai Hongqiao International Airport (ZSSS) |
Arrival
| Time | 2026-04-29 12:24 |
|---|---|
| Airport | Xiamen Gaoqi International Airport (ZSAM) |
| Time | Latitude | Longitude | Altitude | Speed | Heading |
|---|---|---|---|---|---|
| 2026-04-29 10:44 | 31.19594 | 121.32546 | 25 ft | 0 kts | 267° |
| 2026-04-29 10:57 | 31.19595 | 121.32561 | 29 ft | 4 kts | 272° |
| 2026-04-29 10:58 | 31.19595 | 121.32585 | 28 ft | 2 kts | 260° |
| 2026-04-29 10:58 | 31.19597 | 121.32614 | 31 ft | 3 kts | 268° |
| 2026-04-29 10:58 | 31.19599 | 121.32638 | 31 ft | 4 kts | 241° |
| 2026-04-29 10:58 | 31.19612 | 121.32656 | 31 ft | 4 kts | 202° |
| 2026-04-29 10:59 | 31.19636 | 121.32664 | 31 ft | 4 kts | 183° |
| 2026-04-29 10:59 | 31.19653 | 121.32664 | 31 ft | 0 kts | 178° |
| 2026-04-29 11:02 | 31.19643 | 121.32664 | 31 ft | 4 kts | 179° |
| 2026-04-29 11:02 | 31.19600 | 121.32678 | 31 ft | 8 kts | 137° |
| 2026-04-29 11:02 | 31.19576 | 121.32751 | 25 ft | 12 kts | 94° |
| 2026-04-29 11:02 | 31.19579 | 121.32861 | 25 ft | 16 kts | 88° |
| 2026-04-29 11:03 | 31.19561 | 121.32973 | 28 ft | 9 kts | 137° |
| 2026-04-29 11:03 | 31.19503 | 121.32988 | 28 ft | 11 kts | 174° |
| 2026-04-29 11:03 | 31.19410 | 121.32994 | 28 ft | 16 kts | 177° |
| 2026-04-29 11:03 | 31.19281 | 121.33001 | 28 ft | 21 kts | 177° |
| 2026-04-29 11:04 | 31.19121 | 121.33009 | 29 ft | 25 kts | 177° |
| 2026-04-29 11:04 | 31.18936 | 121.33019 | 28 ft | 28 kts | 177° |
| 2026-04-29 11:04 | 31.18731 | 121.33031 | 28 ft | 31 kts | 177° |
| 2026-04-29 11:04 | 31.18509 | 121.33043 | 28 ft | 33 kts | 177° |
| 2026-04-29 11:05 | 31.18343 | 121.33079 | 31 ft | 16 kts | 130° |
| 2026-04-29 11:05 | 31.18338 | 121.33157 | 30 ft | 9 kts | 80° |
| 2026-04-29 11:05 | 31.18342 | 121.33210 | 29 ft | 11 kts | 86° |
| 2026-04-29 11:05 | 31.18389 | 121.33315 | 30 ft | 12 kts | 17° |
| 2026-04-29 11:06 | 31.18472 | 121.33319 | 27 ft | 13 kts | 359° |
| 2026-04-29 11:06 | 31.18587 | 121.33313 | 27 ft | 48 kts | 357° |
| 2026-04-29 11:06 | 31.19490 | 121.33264 | 26 ft | 142 kts | 357° |
| 2026-04-29 11:06 | 31.20223 | 121.33229 | 189 ft | 167 kts | 359° |
| 2026-04-29 11:07 | 31.21347 | 121.33175 | 1153 ft | 156 kts | 358° |
| 2026-04-29 11:07 | 31.22387 | 121.33066 | 2183 ft | 147 kts | 353° |
| 2026-04-29 11:07 | 31.23309 | 121.32489 | 2843 ft | 161 kts | 320° |
| 2026-04-29 11:07 | 31.23958 | 121.31365 | 3420 ft | 177 kts | 306° |
| 2026-04-29 11:08 | 31.24581 | 121.30015 | 3742 ft | 205 kts | 303° |
| 2026-04-29 11:08 | 31.25280 | 121.28458 | 4267 ft | 224 kts | 302° |
| 2026-04-29 11:08 | 31.25987 | 121.26770 | 4811 ft | 242 kts | 294° |
| 2026-04-29 11:08 | 31.26275 | 121.24746 | 5365 ft | 265 kts | 267° |
| 2026-04-29 11:09 | 31.25605 | 121.22724 | 6246 ft | 274 kts | 233° |
| 2026-04-29 11:09 | 31.24104 | 121.21363 | 7241 ft | 276 kts | 207° |
| 2026-04-29 11:09 | 31.22343 | 121.20488 | 8391 ft | 273 kts | 204° |
| 2026-04-29 11:09 | 31.20594 | 121.19663 | 9583 ft | 271 kts | 204° |
| 2026-04-29 11:10 | 31.18854 | 121.18804 | 10588 ft | 274 kts | 206° |
| 2026-04-29 11:10 | 31.17051 | 121.17878 | 11137 ft | 294 kts | 207° |
| 2026-04-29 11:10 | 31.15126 | 121.16862 | 11586 ft | 314 kts | 207° |
| 2026-04-29 11:10 | 31.13074 | 121.15774 | 12136 ft | 329 kts | 207° |
| 2026-04-29 11:11 | 31.10968 | 121.14664 | 12944 ft | 334 kts | 207° |
| 2026-04-29 11:11 | 31.08930 | 121.13371 | 13806 ft | 333 kts | 217° |
| 2026-04-29 11:11 | 31.07258 | 121.11516 | 14572 ft | 332 kts | 233° |
| 2026-04-29 11:11 | 31.06176 | 121.09137 | 15260 ft | 336 kts | 249° |
| 2026-04-29 11:12 | 31.05475 | 121.06511 | 15920 ft | 341 kts | 253° |
| 2026-04-29 11:12 | 31.04836 | 121.03830 | 16602 ft | 344 kts | 253° |
| 2026-04-29 11:12 | 31.04203 | 121.01162 | 17294 ft | 347 kts | 253° |
| 2026-04-29 11:12 | 31.03545 | 120.98430 | 17995 ft | 350 kts | 253° |
| 2026-04-29 11:13 | 31.02878 | 120.95683 | 18675 ft | 353 kts | 253° |
| 2026-04-29 11:13 | 31.02201 | 120.92914 | 19265 ft | 356 kts | 253° |
| 2026-04-29 11:13 | 31.01515 | 120.90120 | 19872 ft | 360 kts | 253° |
| 2026-04-29 11:13 | 31.00828 | 120.87327 | 20492 ft | 362 kts | 253° |
| 2026-04-29 11:14 | 31.00137 | 120.84522 | 21115 ft | 365 kts | 252° |
| 2026-04-29 11:14 | 30.99434 | 120.81670 | 21732 ft | 368 kts | 252° |
| 2026-04-29 11:14 | 30.98724 | 120.78796 | 22341 ft | 371 kts | 252° |
| 2026-04-29 11:14 | 30.98006 | 120.75893 | 22964 ft | 374 kts | 252° |
| 2026-04-29 11:15 | 30.97285 | 120.72981 | 23587 ft | 377 kts | 252° |
| 2026-04-29 11:15 | 30.96553 | 120.70027 | 24112 ft | 380 kts | 252° |
| 2026-04-29 11:15 | 30.95816 | 120.67057 | 24648 ft | 383 kts | 252° |
| 2026-04-29 11:15 | 30.95072 | 120.64063 | 25204 ft | 385 kts | 252° |
| 2026-04-29 11:16 | 30.94322 | 120.61048 | 25749 ft | 388 kts | 251° |
| 2026-04-29 11:16 | 30.93567 | 120.58016 | 26282 ft | 392 kts | 251° |
| 2026-04-29 11:16 | 30.92804 | 120.54956 | 26837 ft | 395 kts | 251° |
| 2026-04-29 11:16 | 30.92045 | 120.51913 | 27384 ft | 398 kts | 251° |
| 2026-04-29 11:17 | 30.91194 | 120.48837 | 27933 ft | 399 kts | 247° |
| 2026-04-29 11:17 | 30.90050 | 120.45889 | 28478 ft | 400 kts | 240° |
| 2026-04-29 11:17 | 30.88557 | 120.43158 | 29020 ft | 401 kts | 233° |
| 2026-04-29 11:17 | 30.86724 | 120.40688 | 29555 ft | 404 kts | 225° |
| 2026-04-29 11:18 | 30.84599 | 120.38528 | 30063 ft | 408 kts | 220° |
| 2026-04-29 11:18 | 30.82321 | 120.36532 | 30266 ft | 413 kts | 218° |
| 2026-04-29 11:18 | 30.79949 | 120.34584 | 30289 ft | 421 kts | 217° |
| 2026-04-29 11:19 | 30.75078 | 120.30715 | 30283 ft | 424 kts | 216° |
| 2026-04-29 11:19 | 30.70246 | 120.26855 | 30273 ft | 424 kts | 217° |
| 2026-04-29 11:20 | 30.65396 | 120.22926 | 30292 ft | 424 kts | 217° |
| 2026-04-29 11:20 | 30.60589 | 120.19012 | 30286 ft | 424 kts | 217° |
| 2026-04-29 11:21 | 30.55756 | 120.15079 | 30286 ft | 424 kts | 217° |
| 2026-04-29 11:21 | 30.50903 | 120.11137 | 30288 ft | 425 kts | 217° |
| 2026-04-29 11:22 | 30.46057 | 120.07208 | 30288 ft | 425 kts | 217° |
| 2026-04-29 11:22 | 30.41152 | 120.03440 | 30289 ft | 426 kts | 214° |
| 2026-04-29 11:23 | 30.36006 | 120.00006 | 30291 ft | 427 kts | 212° |
| 2026-04-29 11:23 | 30.30811 | 119.96643 | 30292 ft | 427 kts | 212° |
| 2026-04-29 11:24 | 30.25676 | 119.93274 | 30289 ft | 427 kts | 213° |
| 2026-04-29 11:24 | 30.20513 | 119.89851 | 30290 ft | 427 kts | 213° |
| 2026-04-29 11:25 | 30.15347 | 119.86418 | 30294 ft | 427 kts | 213° |
| 2026-04-29 11:25 | 30.10186 | 119.82994 | 30295 ft | 427 kts | 213° |
| 2026-04-29 11:26 | 30.02467 | 119.77866 | 30283 ft | 427 kts | 213° |
| 2026-04-29 11:26 | 29.97328 | 119.74410 | 30281 ft | 428 kts | 213° |
| 2026-04-29 11:27 | 29.92216 | 119.70967 | 30278 ft | 428 kts | 213° |
| 2026-04-29 11:27 | 29.87093 | 119.67453 | 30279 ft | 427 kts | 215° |
| 2026-04-29 11:28 | 29.82037 | 119.63816 | 30282 ft | 428 kts | 215° |
| 2026-04-29 11:28 | 29.77029 | 119.60189 | 30274 ft | 428 kts | 215° |
| 2026-04-29 11:29 | 29.71703 | 119.57034 | 30276 ft | 435 kts | 205° |
| 2026-04-29 11:29 | 29.65704 | 119.55555 | 30270 ft | 446 kts | 192° |
| 2026-04-29 11:30 | 29.59466 | 119.55140 | 30267 ft | 451 kts | 188° |
| 2026-04-29 11:30 | 29.53207 | 119.55067 | 30267 ft | 452 kts | 188° |
| 2026-04-29 11:31 | 29.46915 | 119.54821 | 30263 ft | 451 kts | 189° |
| 2026-04-29 11:31 | 29.40648 | 119.54445 | 30262 ft | 451 kts | 189° |
| 2026-04-29 11:32 | 29.34404 | 119.54048 | 30261 ft | 452 kts | 189° |
| 2026-04-29 11:32 | 29.28117 | 119.53660 | 30261 ft | 452 kts | 189° |
| 2026-04-29 11:33 | 29.21825 | 119.53280 | 30263 ft | 453 kts | 189° |
| 2026-04-29 11:33 | 29.15523 | 119.52901 | 30262 ft | 454 kts | 189° |
| 2026-04-29 11:34 | 29.09329 | 119.52531 | 30264 ft | 454 kts | 189° |
| 2026-04-29 11:34 | 29.02986 | 119.52142 | 29993 ft | 464 kts | 189° |
| 2026-04-29 11:35 | 28.99737 | 119.51935 | 29684 ft | 466 kts | 189° |
| 2026-04-29 11:35 | 28.96538 | 119.51742 | 29274 ft | 455 kts | 189° |
| 2026-04-29 11:35 | 28.93417 | 119.51559 | 28874 ft | 444 kts | 189° |
| 2026-04-29 11:35 | 28.90358 | 119.51380 | 28489 ft | 436 kts | 189° |
| 2026-04-29 11:36 | 28.87331 | 119.51198 | 28107 ft | 435 kts | 189° |
| 2026-04-29 11:36 | 28.84300 | 119.51010 | 27725 ft | 437 kts | 189° |
| 2026-04-29 11:36 | 28.81259 | 119.50817 | 27348 ft | 439 kts | 189° |
| 2026-04-29 11:36 | 28.78239 | 119.50626 | 26984 ft | 441 kts | 189° |
| 2026-04-29 11:37 | 28.75166 | 119.50436 | 26623 ft | 443 kts | 189° |
| 2026-04-29 11:37 | 28.72080 | 119.50247 | 26272 ft | 444 kts | 189° |
| 2026-04-29 11:37 | 28.68988 | 119.50058 | 25924 ft | 446 kts | 189° |
| 2026-04-29 11:37 | 28.65881 | 119.49868 | 25779 ft | 448 kts | 189° |
| 2026-04-29 11:38 | 28.62758 | 119.49677 | 25754 ft | 449 kts | 189° |
| 2026-04-29 11:38 | 28.59636 | 119.49485 | 25750 ft | 448 kts | 188° |
| 2026-04-29 11:38 | 28.56519 | 119.49296 | 25754 ft | 448 kts | 188° |
| 2026-04-29 11:38 | 28.53434 | 119.49111 | 25754 ft | 448 kts | 188° |
| 2026-04-29 11:39 | 28.50317 | 119.48924 | 25751 ft | 449 kts | 188° |
| 2026-04-29 11:39 | 28.47189 | 119.48735 | 25744 ft | 449 kts | 188° |
| 2026-04-29 11:39 | 28.44060 | 119.48553 | 25749 ft | 450 kts | 188° |
| 2026-04-29 11:39 | 28.40933 | 119.48380 | 25746 ft | 450 kts | 188° |
| 2026-04-29 11:40 | 28.37835 | 119.48212 | 25747 ft | 450 kts | 188° |
| 2026-04-29 11:40 | 28.34700 | 119.48044 | 25748 ft | 450 kts | 188° |
| 2026-04-29 11:40 | 28.31554 | 119.47874 | 25750 ft | 450 kts | 188° |
| 2026-04-29 11:40 | 28.28456 | 119.47708 | 25750 ft | 451 kts | 188° |
| 2026-04-29 11:41 | 28.25306 | 119.47539 | 25744 ft | 451 kts | 188° |
| 2026-04-29 11:41 | 28.22162 | 119.47369 | 25741 ft | 451 kts | 188° |
| 2026-04-29 11:41 | 28.19055 | 119.47197 | 25744 ft | 452 kts | 188° |
| 2026-04-29 11:41 | 28.15902 | 119.47022 | 25749 ft | 452 kts | 188° |
| 2026-04-29 11:42 | 28.12749 | 119.46849 | 25747 ft | 452 kts | 188° |
| 2026-04-29 11:42 | 28.09596 | 119.46697 | 25739 ft | 453 kts | 187° |
| 2026-04-29 11:42 | 28.06475 | 119.46606 | 25745 ft | 454 kts | 186° |
| 2026-04-29 11:42 | 28.03310 | 119.46555 | 25740 ft | 455 kts | 186° |
| 2026-04-29 11:43 | 28.00141 | 119.46519 | 25739 ft | 455 kts | 186° |
| 2026-04-29 11:43 | 27.96975 | 119.46490 | 25731 ft | 455 kts | 186° |
| 2026-04-29 11:43 | 27.93794 | 119.46456 | 25740 ft | 456 kts | 186° |
| 2026-04-29 11:43 | 27.90612 | 119.46427 | 25733 ft | 456 kts | 186° |
| 2026-04-29 11:44 | 27.87475 | 119.46409 | 25729 ft | 457 kts | 185° |
| 2026-04-29 11:44 | 27.84289 | 119.46399 | 25730 ft | 457 kts | 185° |
| 2026-04-29 11:44 | 27.81101 | 119.46392 | 25722 ft | 458 kts | 185° |
| 2026-04-29 11:44 | 27.77903 | 119.46379 | 25722 ft | 458 kts | 186° |
| 2026-04-29 11:45 | 27.74701 | 119.46365 | 25716 ft | 458 kts | 186° |
| 2026-04-29 11:45 | 27.71509 | 119.46350 | 25708 ft | 458 kts | 186° |
| 2026-04-29 11:45 | 27.68364 | 119.46332 | 25710 ft | 458 kts | 186° |
| 2026-04-29 11:45 | 27.65170 | 119.46316 | 25704 ft | 459 kts | 186° |
| 2026-04-29 11:46 | 27.61960 | 119.46300 | 25706 ft | 459 kts | 186° |
| 2026-04-29 11:46 | 27.58759 | 119.46285 | 25701 ft | 459 kts | 186° |
| 2026-04-29 11:46 | 27.55606 | 119.46273 | 25693 ft | 459 kts | 186° |
| 2026-04-29 11:46 | 27.52411 | 119.46264 | 25690 ft | 459 kts | 186° |
| 2026-04-29 11:47 | 27.49204 | 119.46251 | 25680 ft | 460 kts | 186° |
| 2026-04-29 11:47 | 27.45995 | 119.46231 | 25676 ft | 460 kts | 186° |
| 2026-04-29 11:47 | 27.42785 | 119.46215 | 25683 ft | 460 kts | 186° |
| 2026-04-29 11:47 | 27.39579 | 119.46210 | 25673 ft | 461 kts | 186° |
| 2026-04-29 11:48 | 27.36401 | 119.46328 | 25668 ft | 468 kts | 178° |
| 2026-04-29 11:48 | 27.33204 | 119.47151 | 25666 ft | 472 kts | 173° |
| 2026-04-29 11:48 | 27.29981 | 119.47411 | 25669 ft | 458 kts | 189° |
| 2026-04-29 11:48 | 27.26872 | 119.46809 | 25673 ft | 451 kts | 199° |
| 2026-04-29 11:49 | 27.23863 | 119.45787 | 25662 ft | 447 kts | 205° |
| 2026-04-29 11:49 | 27.20997 | 119.44458 | 25661 ft | 445 kts | 208° |
| 2026-04-29 11:49 | 27.18187 | 119.43004 | 25659 ft | 444 kts | 210° |
| 2026-04-29 11:49 | 27.15438 | 119.41527 | 25667 ft | 444 kts | 210° |
| 2026-04-29 11:50 | 27.12650 | 119.40005 | 25666 ft | 444 kts | 210° |
| 2026-04-29 11:50 | 27.09877 | 119.38480 | 25645 ft | 444 kts | 210° |
| 2026-04-29 11:50 | 27.07101 | 119.36948 | 25662 ft | 444 kts | 210° |
| 2026-04-29 11:50 | 27.04322 | 119.35412 | 25662 ft | 444 kts | 210° |
| 2026-04-29 11:51 | 27.01549 | 119.33880 | 25662 ft | 445 kts | 210° |
| 2026-04-29 11:51 | 26.98795 | 119.32359 | 25662 ft | 445 kts | 210° |
| 2026-04-29 11:51 | 26.96008 | 119.30821 | 25660 ft | 445 kts | 210° |
| 2026-04-29 11:51 | 26.93228 | 119.29285 | 25652 ft | 445 kts | 210° |
| 2026-04-29 11:52 | 26.90442 | 119.27748 | 25651 ft | 445 kts | 210° |
| 2026-04-29 11:52 | 26.87664 | 119.26215 | 25654 ft | 445 kts | 210° |
| 2026-04-29 11:52 | 26.84888 | 119.24685 | 25656 ft | 445 kts | 210° |
| 2026-04-29 11:52 | 26.82109 | 119.23154 | 25657 ft | 445 kts | 210° |
| 2026-04-29 11:53 | 26.79357 | 119.21638 | 25653 ft | 445 kts | 210° |
| 2026-04-29 11:53 | 26.76561 | 119.20100 | 25658 ft | 445 kts | 210° |
| 2026-04-29 11:53 | 26.73774 | 119.18568 | 25651 ft | 446 kts | 210° |
| 2026-04-29 11:53 | 26.70991 | 119.17038 | 25655 ft | 446 kts | 210° |
| 2026-04-29 11:54 | 26.68234 | 119.15525 | 25658 ft | 446 kts | 210° |
| 2026-04-29 11:54 | 26.65446 | 119.13993 | 25654 ft | 446 kts | 210° |
| 2026-04-29 11:54 | 26.62654 | 119.12459 | 25648 ft | 446 kts | 210° |
| 2026-04-29 11:54 | 26.59860 | 119.10925 | 25652 ft | 447 kts | 210° |
| 2026-04-29 11:55 | 26.57063 | 119.09389 | 25653 ft | 447 kts | 210° |
| 2026-04-29 11:55 | 26.54306 | 119.07876 | 25647 ft | 446 kts | 210° |
| 2026-04-29 11:55 | 26.51516 | 119.06352 | 25650 ft | 446 kts | 210° |
| 2026-04-29 11:55 | 26.48722 | 119.04827 | 25651 ft | 446 kts | 210° |
| 2026-04-29 11:56 | 26.45924 | 119.03297 | 25653 ft | 447 kts | 210° |
| 2026-04-29 11:56 | 26.44066 | 119.02281 | 25648 ft | 447 kts | 210° |
| 2026-04-29 11:56 | 26.40350 | 119.00250 | 25650 ft | 447 kts | 210° |
| 2026-04-29 11:56 | 26.38496 | 118.99237 | 25650 ft | 447 kts | 210° |
| 2026-04-29 11:57 | 26.34775 | 118.97204 | 25652 ft | 448 kts | 210° |
| 2026-04-29 11:57 | 26.31969 | 118.95673 | 25645 ft | 448 kts | 210° |
| 2026-04-29 11:57 | 26.30114 | 118.94662 | 25648 ft | 448 kts | 210° |
| 2026-04-29 11:57 | 26.26355 | 118.92612 | 25647 ft | 448 kts | 210° |
| 2026-04-29 11:58 | 26.23583 | 118.91103 | 25647 ft | 448 kts | 210° |
| 2026-04-29 11:58 | 26.20768 | 118.89570 | 25641 ft | 449 kts | 210° |
| 2026-04-29 11:58 | 26.18909 | 118.88558 | 25644 ft | 449 kts | 210° |
| 2026-04-29 11:58 | 26.16094 | 118.87027 | 25646 ft | 449 kts | 210° |
| 2026-04-29 11:59 | 26.13274 | 118.85494 | 25646 ft | 449 kts | 210° |
| 2026-04-29 11:59 | 26.10464 | 118.83968 | 25644 ft | 450 kts | 210° |
| 2026-04-29 11:59 | 26.07680 | 118.82454 | 25646 ft | 450 kts | 210° |
| 2026-04-29 11:59 | 26.04869 | 118.80929 | 25639 ft | 450 kts | 209° |
| 2026-04-29 12:00 | 26.02041 | 118.79396 | 25640 ft | 450 kts | 209° |
| 2026-04-29 12:00 | 25.99218 | 118.77865 | 25638 ft | 450 kts | 210° |
| 2026-04-29 12:00 | 25.96396 | 118.76337 | 25642 ft | 451 kts | 209° |
| 2026-04-29 12:00 | 25.93576 | 118.74810 | 25641 ft | 451 kts | 209° |
| 2026-04-29 12:01 | 25.90755 | 118.73282 | 25638 ft | 451 kts | 209° |
| 2026-04-29 12:01 | 25.87022 | 118.71262 | 25639 ft | 451 kts | 209° |
| 2026-04-29 12:01 | 25.85122 | 118.70235 | 25639 ft | 451 kts | 209° |
| 2026-04-29 12:01 | 25.82300 | 118.68710 | 25641 ft | 450 kts | 209° |
| 2026-04-29 12:02 | 25.79481 | 118.67188 | 25637 ft | 450 kts | 209° |
| 2026-04-29 12:02 | 25.76661 | 118.65665 | 25635 ft | 450 kts | 209° |
| 2026-04-29 12:02 | 25.73884 | 118.64167 | 25635 ft | 451 kts | 209° |
| 2026-04-29 12:02 | 25.71057 | 118.62644 | 25632 ft | 451 kts | 209° |
| 2026-04-29 12:03 | 25.68236 | 118.61122 | 25633 ft | 450 kts | 209° |
| 2026-04-29 12:03 | 25.65424 | 118.59606 | 25631 ft | 451 kts | 209° |
| 2026-04-29 12:03 | 25.62595 | 118.58083 | 25628 ft | 450 kts | 209° |
| 2026-04-29 12:03 | 25.59772 | 118.56563 | 25628 ft | 450 kts | 209° |
| 2026-04-29 12:04 | 25.56949 | 118.55045 | 25632 ft | 451 kts | 209° |
| 2026-04-29 12:04 | 25.54129 | 118.53529 | 25632 ft | 451 kts | 209° |
| 2026-04-29 12:04 | 25.51308 | 118.52014 | 25628 ft | 451 kts | 209° |
| 2026-04-29 12:04 | 25.48483 | 118.50496 | 25632 ft | 452 kts | 209° |
| 2026-04-29 12:05 | 25.45672 | 118.48988 | 25356 ft | 443 kts | 209° |
| 2026-04-29 12:05 | 25.42907 | 118.47505 | 24484 ft | 443 kts | 209° |
| 2026-04-29 12:05 | 25.40116 | 118.46008 | 23549 ft | 448 kts | 209° |
| 2026-04-29 12:05 | 25.37311 | 118.44505 | 22671 ft | 446 kts | 208° |
| 2026-04-29 12:06 | 25.34541 | 118.43023 | 21953 ft | 439 kts | 208° |
| 2026-04-29 12:06 | 25.31848 | 118.41582 | 21287 ft | 433 kts | 208° |
| 2026-04-29 12:06 | 25.29154 | 118.40141 | 20507 ft | 429 kts | 208° |
| 2026-04-29 12:06 | 25.26482 | 118.38713 | 19832 ft | 423 kts | 208° |
| 2026-04-29 12:07 | 25.23851 | 118.37304 | 19191 ft | 416 kts | 208° |
| 2026-04-29 12:07 | 25.21266 | 118.35921 | 18568 ft | 410 kts | 208° |
| 2026-04-29 12:07 | 25.18711 | 118.34557 | 17883 ft | 405 kts | 208° |
| 2026-04-29 12:07 | 25.16196 | 118.33215 | 17240 ft | 397 kts | 208° |
| 2026-04-29 12:08 | 25.13732 | 118.31902 | 16619 ft | 390 kts | 208° |
| 2026-04-29 12:08 | 25.11307 | 118.30608 | 15998 ft | 384 kts | 208° |
| 2026-04-29 12:08 | 25.08929 | 118.29340 | 15388 ft | 376 kts | 207° |
| 2026-04-29 12:08 | 25.06592 | 118.28097 | 14793 ft | 371 kts | 207° |
| 2026-04-29 12:09 | 25.04278 | 118.26865 | 14177 ft | 367 kts | 207° |
| 2026-04-29 12:09 | 25.01988 | 118.25645 | 13550 ft | 363 kts | 207° |
| 2026-04-29 12:09 | 24.99738 | 118.24447 | 12940 ft | 358 kts | 207° |
| 2026-04-29 12:09 | 24.97510 | 118.23262 | 12339 ft | 352 kts | 207° |
| 2026-04-29 12:10 | 24.95312 | 118.22094 | 11744 ft | 348 kts | 207° |
| 2026-04-29 12:10 | 24.93151 | 118.20946 | 11442 ft | 337 kts | 207° |
| 2026-04-29 12:10 | 24.91087 | 118.19850 | 11319 ft | 321 kts | 207° |
| 2026-04-29 12:10 | 24.89117 | 118.18803 | 11183 ft | 306 kts | 207° |
| 2026-04-29 12:11 | 24.87239 | 118.17813 | 11051 ft | 293 kts | 207° |
| 2026-04-29 12:11 | 24.85525 | 118.16917 | 10933 ft | 282 kts | 207° |
| 2026-04-29 12:11 | 24.83794 | 118.16007 | 10801 ft | 270 kts | 207° |
| 2026-04-29 12:11 | 24.82154 | 118.15142 | 10664 ft | 259 kts | 208° |
| 2026-04-29 12:12 | 24.80543 | 118.14290 | 10557 ft | 256 kts | 208° |
| 2026-04-29 12:12 | 24.78941 | 118.13440 | 10365 ft | 255 kts | 208° |
| 2026-04-29 12:12 | 24.77340 | 118.12591 | 10081 ft | 255 kts | 208° |
| 2026-04-29 12:12 | 24.75735 | 118.11739 | 9834 ft | 261 kts | 208° |
| 2026-04-29 12:13 | 24.74056 | 118.10846 | 9724 ft | 273 kts | 208° |
| 2026-04-29 12:13 | 24.72344 | 118.09940 | 9422 ft | 272 kts | 208° |
| 2026-04-29 12:13 | 24.70624 | 118.09031 | 8950 ft | 273 kts | 208° |
| 2026-04-29 12:13 | 24.68908 | 118.08124 | 8600 ft | 273 kts | 208° |
| 2026-04-29 12:14 | 24.67199 | 118.07220 | 8312 ft | 273 kts | 208° |
| 2026-04-29 12:14 | 24.65496 | 118.06311 | 8012 ft | 271 kts | 208° |
| 2026-04-29 12:14 | 24.63818 | 118.05423 | 7729 ft | 271 kts | 207° |
| 2026-04-29 12:14 | 24.62120 | 118.04529 | 7430 ft | 270 kts | 207° |
| 2026-04-29 12:15 | 24.60421 | 118.03635 | 7140 ft | 270 kts | 207° |
| 2026-04-29 12:15 | 24.58738 | 118.02748 | 6858 ft | 268 kts | 207° |
| 2026-04-29 12:15 | 24.57082 | 118.01812 | 6558 ft | 267 kts | 213° |
| 2026-04-29 12:15 | 24.55666 | 118.00512 | 6109 ft | 266 kts | 226° |
| 2026-04-29 12:16 | 24.54409 | 117.99026 | 5706 ft | 263 kts | 229° |
| 2026-04-29 12:16 | 24.53206 | 117.97547 | 5471 ft | 254 kts | 229° |
| 2026-04-29 12:16 | 24.52054 | 117.96136 | 5343 ft | 242 kts | 229° |
| 2026-04-29 12:16 | 24.50953 | 117.94793 | 5233 ft | 231 kts | 229° |
| 2026-04-29 12:17 | 24.49897 | 117.93508 | 5106 ft | 222 kts | 229° |
| 2026-04-29 12:17 | 24.48877 | 117.92274 | 4945 ft | 220 kts | 229° |
| 2026-04-29 12:17 | 24.47840 | 117.91046 | 4714 ft | 219 kts | 226° |
| 2026-04-29 12:17 | 24.46572 | 117.90135 | 4438 ft | 222 kts | 201° |
| 2026-04-29 12:18 | 24.45028 | 117.90096 | 4182 ft | 228 kts | 165° |
| 2026-04-29 12:18 | 24.43670 | 117.90938 | 4076 ft | 222 kts | 146° |
| 2026-04-29 12:18 | 24.42484 | 117.91967 | 3963 ft | 213 kts | 142° |
| 2026-04-29 12:18 | 24.41632 | 117.93254 | 3812 ft | 209 kts | 108° |
| 2026-04-29 12:19 | 24.41694 | 117.94812 | 3736 ft | 214 kts | 70° |
| 2026-04-29 12:19 | 24.42496 | 117.96259 | 3734 ft | 224 kts | 49° |
| 2026-04-29 12:19 | 24.43505 | 117.97497 | 3406 ft | 213 kts | 46° |
| 2026-04-29 12:19 | 24.44441 | 117.98736 | 2979 ft | 207 kts | 51° |
| 2026-04-29 12:20 | 24.45272 | 117.99951 | 2640 ft | 196 kts | 51° |
| 2026-04-29 12:20 | 24.46084 | 118.01082 | 2377 ft | 183 kts | 51° |
| 2026-04-29 12:20 | 24.46848 | 118.02147 | 2155 ft | 171 kts | 52° |
| 2026-04-29 12:20 | 24.47554 | 118.03143 | 1940 ft | 161 kts | 52° |
| 2026-04-29 12:21 | 24.48231 | 118.04096 | 1709 ft | 154 kts | 52° |
| 2026-04-29 12:21 | 24.48867 | 118.04985 | 1518 ft | 141 kts | 54° |
| 2026-04-29 12:21 | 24.49444 | 118.05803 | 1326 ft | 129 kts | 53° |
| 2026-04-29 12:21 | 24.49981 | 118.06554 | 1173 ft | 122 kts | 53° |
| 2026-04-29 12:22 | 24.50502 | 118.07283 | 1013 ft | 123 kts | 54° |
| 2026-04-29 12:22 | 24.51023 | 118.08016 | 857 ft | 121 kts | 53° |
| 2026-04-29 12:22 | 24.51547 | 118.08748 | 707 ft | 123 kts | 53° |
| 2026-04-29 12:22 | 24.52076 | 118.09492 | 557 ft | 123 kts | 54° |
| 2026-04-29 12:23 | 24.52609 | 118.10241 | 385 ft | 126 kts | 54° |
| 2026-04-29 12:23 | 24.53148 | 118.10976 | 214 ft | 124 kts | 54° |
| 2026-04-29 12:23 | 24.53684 | 118.11744 | 88 ft | 127 kts | 54° |
| 2026-04-29 12:23 | 24.54191 | 118.12461 | 58 ft | 105 kts | 51° |
| 2026-04-29 12:24 | 24.54477 | 118.12876 | 52 ft | 32 kts | 61° |
| 2026-04-29 12:24 | 24.54531 | 118.13091 | 53 ft | 27 kts | 78° |
| 2026-04-29 12:24 | 24.54570 | 118.13273 | 52 ft | 25 kts | 61° |
| 2026-04-29 12:24 | 24.54671 | 118.13417 | 48 ft | 24 kts | 52° |
| 2026-04-29 12:25 | 24.54781 | 118.13570 | 52 ft | 27 kts | 51° |
| 2026-04-29 12:25 | 24.54865 | 118.13705 | 50 ft | 12 kts | 83° |
| 2026-04-29 12:25 | 24.54730 | 118.13860 | 49 ft | 11 kts | 133° |
| 2026-04-29 12:26 | 24.54736 | 118.13919 | 46 ft | 10 kts | 58° |
| 2026-04-29 12:26 | 24.54750 | 118.13939 | 49 ft | 0 kts | 53° |
| 2026-04-29 12:26 | 24.54755 | 118.13947 | 52 ft | 1 kts | 53° |
| 2026-04-29 12:26 | 24.54756 | 118.13948 | 52 ft | 0 kts | 53° |